sensor_id;sensor_type;location;lat;lon;timestamp;pressure;altitude;pressure_sealevel;temperature;humidity
48553;BME280;34335;51.566;6.994;2023-04-29T00:02:03;100683.47;;;10.88;100.00
48553;BME280;34335;51.566;6.994;2023-04-29T00:04:28;100690.41;;;10.79;100.00
48553;BME280;34335;51.566;6.994;2023-04-29T00:06:54;100693.06;;;10.62;100.00
48553;BME280;34335;51.566;6.994;2023-04-29T00:09:20;100688.72;;;10.60;100.00
48553;BME280;34335;51.566;6.994;2023-04-29T00:11:46;100697.41;;;10.59;100.00
48553;BME280;34335;51.566;6.994;2023-04-29T00:14:12;100694.81;;;10.63;100.00
48553;BME280;34335;51.566;6.994;2023-04-29T00:16:37;100705.19;;;10.52;100.00
48553;BME280;34335;51.566;6.994;2023-04-29T00:19:02;100700.00;;;10.38;100.00
48553;BME280;34335;51.566;6.994;2023-04-29T00:21:28;100702.56;;;10.33;100.00
48553;BME280;34335;51.566;6.994;2023-04-29T00:23:53;100704.34;;;10.43;100.00
48553;BME280;34335;51.566;6.994;2023-04-29T00:26:18;100707.81;;;10.50;100.00
48553;BME280;34335;51.566;6.994;2023-04-29T00:28:44;100700.88;;;10.41;100.00
48553;BME280;34335;51.566;6.994;2023-04-29T00:31:09;100715.56;;;10.35;100.00
48553;BME280;34335;51.566;6.994;2023-04-29T00:33:34;100720.75;;;10.19;100.00
48553;BME280;34335;51.566;6.994;2023-04-29T00:36:00;100716.44;;;10.35;100.00
48553;BME280;34335;51.566;6.994;2023-04-29T00:38:26;100728.56;;;10.13;100.00
48553;BME280;34335;51.566;6.994;2023-04-29T00:40:51;100733.78;;;10.22;100.00
48553;BME280;34335;51.566;6.994;2023-04-29T00:43:16;100732.88;;;10.16;100.00
48553;BME280;34335;51.566;6.994;2023-04-29T00:45:42;100731.13;;;9.99;100.00
48553;BME280;34335;51.566;6.994;2023-04-29T00:48:08;100735.50;;;10.25;100.00
48553;BME280;34335;51.566;6.994;2023-04-29T00:50:33;100738.94;;;10.14;100.00
48553;BME280;34335;51.566;6.994;2023-04-29T00:52:59;100735.44;;;9.88;100.00
48553;BME280;34335;51.566;6.994;2023-04-29T00:55:25;100737.19;;;10.06;100.00
48553;BME280;34335;51.566;6.994;2023-04-29T00:57:51;100743.25;;;10.02;100.00
48553;BME280;34335;51.566;6.994;2023-04-29T01:00:17;100736.31;;;9.97;100.00
48553;BME280;34335;51.566;6.994;2023-04-29T01:02:44;100738.06;;;10.03;100.00
48553;BME280;34335;51.566;6.994;2023-04-29T01:05:10;100747.59;;;10.10;100.00
48553;BME280;34335;51.566;6.994;2023-04-29T01:07:55;100744.13;;;10.07;100.00
48553;BME280;34335;51.566;6.994;2023-04-29T01:10:28;100744.91;;;9.69;100.00
48553;BME280;34335;51.566;6.994;2023-04-29T01:13:30;100756.16;;;9.72;100.00
48553;BME280;34335;51.566;6.994;2023-04-29T01:16:01;100754.47;;;9.76;100.00
48553;BME280;34335;51.566;6.994;2023-04-29T01:18:36;100754.47;;;9.82;100.00
48553;BME280;34335;51.566;6.994;2023-04-29T01:21:01;100758.75;;;9.64;100.00
48553;BME280;34335;51.566;6.994;2023-04-29T01:23:29;100760.50;;;9.75;100.00
48553;BME280;34335;51.566;6.994;2023-04-29T01:25:56;100764.03;;;9.98;100.00
48553;BME280;34335;51.566;6.994;2023-04-29T01:28:42;100764.03;;;9.92;100.00
48553;BME280;34335;51.566;6.994;2023-04-29T01:31:27;100773.44;;;9.59;100.00
48553;BME280;34335;51.566;6.994;2023-04-29T01:34:07;100773.44;;;9.64;100.00
48553;BME280;34335;51.566;6.994;2023-04-29T01:36:59;100776.88;;;9.55;100.00
48553;BME280;34335;51.566;6.994;2023-04-29T01:42:21;100783.81;;;9.58;100.00
48553;BME280;34335;51.566;6.994;2023-04-29T01:44:50;100781.19;;;9.53;100.00
48553;BME280;34335;51.566;6.994;2023-04-29T01:47:17;100779.44;;;9.46;100.00
48553;BME280;34335;51.566;6.994;2023-04-29T01:49:42;100790.72;;;9.49;100.00
48553;BME280;34335;51.566;6.994;2023-04-29T01:52:10;100795.13;;;9.69;100.00
48553;BME280;34335;51.566;6.994;2023-04-29T01:54:36;100800.22;;;9.52;100.00
48553;BME280;34335;51.566;6.994;2023-04-29T01:57:02;100797.53;;;9.35;100.00
48553;BME280;34335;51.566;6.994;2023-04-29T01:59:28;100800.06;;;9.21;100.00
48553;BME280;34335;51.566;6.994;2023-04-29T02:01:54;100802.72;;;9.35;100.00
48553;BME280;34335;51.566;6.994;2023-04-29T02:04:21;100799.31;;;9.38;100.00
48553;BME280;34335;51.566;6.994;2023-04-29T02:06:46;100802.78;;;9.41;100.00
48553;BME280;34335;51.566;6.994;2023-04-29T02:09:11;100804.38;;;9.24;100.00
48553;BME280;34335;51.566;6.994;2023-04-29T02:11:36;100811.34;;;9.28;100.00
48553;BME280;34335;51.566;6.994;2023-04-29T02:14:02;100815.69;;;9.27;100.00
48553;BME280;34335;51.566;6.994;2023-04-29T02:16:27;100819.19;;;9.35;100.00
48553;BME280;34335;51.566;6.994;2023-04-29T02:18:52;100818.31;;;9.32;100.00
48553;BME280;34335;51.566;6.994;2023-04-29T02:21:17;100811.19;;;9.06;100.00
48553;BME280;34335;51.566;6.994;2023-04-29T02:23:43;100816.44;;;9.14;100.00
48553;BME280;34335;51.566;6.994;2023-04-29T02:26:08;100813.81;;;9.11;100.00
48553;BME280;34335;51.566;6.994;2023-04-29T02:28:34;100827.78;;;9.25;100.00
48553;BME280;34335;51.566;6.994;2023-04-29T02:31:00;100825.06;;;9.08;100.00
48553;BME280;34335;51.566;6.994;2023-04-29T02:33:25;100824.25;;;9.20;100.00
48553;BME280;34335;51.566;6.994;2023-04-29T02:35:50;100827.69;;;9.13;100.00
48553;BME280;34335;51.566;6.994;2023-04-29T02:38:16;100832.81;;;9.02;100.00
48553;BME280;34335;51.566;6.994;2023-04-29T02:40:44;100827.72;;;9.16;100.00
48553;BME280;34335;51.566;6.994;2023-04-29T02:43:10;100835.41;;;9.03;100.00
48553;BME280;34335;51.566;6.994;2023-04-29T02:45:36;100838.03;;;9.07;100.00
48553;BME280;34335;51.566;6.994;2023-04-29T02:48:01;100845.88;;;9.16;100.00
48553;BME280;34335;51.566;6.994;2023-04-29T02:50:27;100836.25;;;9.01;100.00
48553;BME280;34335;51.566;6.994;2023-04-29T02:52:52;100844.03;;;9.02;100.00
48553;BME280;34335;51.566;6.994;2023-04-29T02:55:18;100846.66;;;9.06;100.00
48553;BME280;34335;51.566;6.994;2023-04-29T02:57:44;100844.06;;;9.07;100.00
48553;BME280;34335;51.566;6.994;2023-04-29T03:00:09;100853.53;;;8.99;100.00
48553;BME280;34335;51.566;6.994;2023-04-29T03:02:35;100852.56;;;8.87;100.00
48553;BME280;34335;51.566;6.994;2023-04-29T03:05:02;100860.22;;;8.73;100.00
48553;BME280;34335;51.566;6.994;2023-04-29T03:07:28;100854.22;;;8.79;100.00
48553;BME280;34335;51.566;6.994;2023-04-29T03:09:54;100858.59;;;8.83;100.00
48553;BME280;34335;51.566;6.994;2023-04-29T03:12:20;100852.56;;;8.86;100.00
48553;BME280;34335;51.566;6.994;2023-04-29T03:14:45;100861.19;;;8.86;100.00
48553;BME280;34335;51.566;6.994;2023-04-29T03:17:11;100858.59;;;8.85;100.00
48553;BME280;34335;51.566;6.994;2023-04-29T03:19:36;100862.03;;;8.84;100.00
48553;BME280;34335;51.566;6.994;2023-04-29T03:22:02;100864.63;;;8.85;100.00
48553;BME280;34335;51.566;6.994;2023-04-29T03:24:27;100871.56;;;8.85;100.00
48553;BME280;34335;51.566;6.994;2023-04-29T03:26:52;100874.19;;;8.88;100.00
48553;BME280;34335;51.566;6.994;2023-04-29T03:29:17;100871.59;;;8.89;100.00
48553;BME280;34335;51.566;6.994;2023-04-29T03:31:43;100875.88;;;8.83;100.00
48553;BME280;34335;51.566;6.994;2023-04-29T03:34:08;100874.13;;;8.79;100.00
48553;BME280;34335;51.566;6.994;2023-04-29T03:36:34;100879.38;;;8.91;100.00
48553;BME280;34335;51.566;6.994;2023-04-29T03:38:59;100881.94;;;8.85;100.00
48553;BME280;34335;51.566;6.994;2023-04-29T03:41:25;100881.16;;;8.94;100.00
48553;BME280;34335;51.566;6.994;2023-04-29T03:43:50;100885.47;;;8.92;100.00
48553;BME280;34335;51.566;6.994;2023-04-29T03:46:16;100881.09;;;8.84;100.00
48553;BME280;34335;51.566;6.994;2023-04-29T03:48:41;100878.50;;;8.86;100.00
48553;BME280;34335;51.566;6.994;2023-04-29T03:51:06;100881.09;;;8.86;100.00
48553;BME280;34335;51.566;6.994;2023-04-29T03:53:33;100883.63;;;8.83;100.00
48553;BME280;34335;51.566;6.994;2023-04-29T03:55:59;100877.56;;;8.78;100.00
48553;BME280;34335;51.566;6.994;2023-04-29T03:58:24;100884.53;;;8.85;100.00
48553;BME280;34335;51.566;6.994;2023-04-29T04:00:50;100883.59;;;8.78;100.00
48553;BME280;34335;51.566;6.994;2023-04-29T04:03:15;100886.28;;;8.86;100.00
48553;BME280;34335;51.566;6.994;2023-04-29T04:05:40;100887.94;;;8.78;100.00
48553;BME280;34335;51.566;6.994;2023-04-29T04:08:06;100891.50;;;8.91;100.00
48553;BME280;34335;51.566;6.994;2023-04-29T04:10:31;100898.38;;;8.87;100.00
48553;BME280;34335;51.566;6.994;2023-04-29T04:12:56;100898.38;;;8.87;100.00
48553;BME280;34335;51.566;6.994;2023-04-29T04:15:22;100902.50;;;8.68;100.00
48553;BME280;34335;51.566;6.994;2023-04-29T04:17:47;100910.28;;;8.65;100.00
48553;BME280;34335;51.566;6.994;2023-04-29T04:20:12;100912.84;;;8.62;100.00
48553;BME280;34335;51.566;6.994;2023-04-29T04:22:38;100910.28;;;8.66;100.00
48553;BME280;34335;51.566;6.994;2023-04-29T04:25:03;100915.41;;;8.60;100.00
48553;BME280;34335;51.566;6.994;2023-04-29T04:27:29;100917.22;;;8.67;100.00
48553;BME280;34335;51.566;6.994;2023-04-29T04:29:54;100922.41;;;8.70;100.00
48553;BME280;34335;51.566;6.994;2023-04-29T04:32:23;100921.47;;;8.62;100.00
48553;BME280;34335;51.566;6.994;2023-04-29T04:34:49;100921.59;;;8.75;100.00
48553;BME280;34335;51.566;6.994;2023-04-29T04:37:14;100926.88;;;8.85;100.00
48553;BME280;34335;51.566;6.994;2023-04-29T04:39:40;100929.56;;;8.93;100.00
48553;BME280;34335;51.566;6.994;2023-04-29T04:42:05;100926.88;;;8.85;100.00
48553;BME280;34335;51.566;6.994;2023-04-29T04:44:31;100937.25;;;8.84;100.00
48553;BME280;34335;51.566;6.994;2023-04-29T04:46:57;100944.03;;;8.69;100.00
48553;BME280;34335;51.566;6.994;2023-04-29T04:49:25;100943.94;;;8.62;100.00
48553;BME280;34335;51.566;6.994;2023-04-29T04:51:50;100947.38;;;8.61;100.00
48553;BME280;34335;51.566;6.994;2023-04-29T04:54:16;100950.06;;;8.68;100.00
48553;BME280;34335;51.566;6.994;2023-04-29T04:56:41;100950.09;;;8.71;100.00
48553;BME280;34335;51.566;6.994;2023-04-29T04:59:07;100944.91;;;8.71;100.00
48553;BME280;34335;51.566;6.994;2023-04-29T05:01:32;100958.72;;;8.69;100.00
48553;BME280;34335;51.566;6.994;2023-04-29T05:03:58;100957.91;;;8.76;100.00
48553;BME280;34335;51.566;6.994;2023-04-29T05:06:24;100955.28;;;8.71;100.00
48553;BME280;34335;51.566;6.994;2023-04-29T05:08:49;100962.25;;;8.77;100.00
48553;BME280;34335;51.566;6.994;2023-04-29T05:11:19;100966.53;;;8.72;100.00
48553;BME280;34335;51.566;6.994;2023-04-29T05:13:45;100962.19;;;8.72;100.00
48553;BME280;34335;51.566;6.994;2023-04-29T05:16:11;100964.84;;;8.74;100.00
48553;BME280;34335;51.566;6.994;2023-04-29T05:18:36;100969.06;;;8.67;100.00
48553;BME280;34335;51.566;6.994;2023-04-29T05:21:02;100976.00;;;8.71;100.00
48553;BME280;34335;51.566;6.994;2023-04-29T05:23:27;100974.16;;;8.58;100.00
48553;BME280;34335;51.566;6.994;2023-04-29T05:25:52;100977.72;;;8.68;100.00
48553;BME280;34335;51.566;6.994;2023-04-29T05:28:18;100987.19;;;8.64;100.00
48553;BME280;34335;51.566;6.994;2023-04-29T05:30:43;100990.63;;;8.62;100.00
48553;BME280;34335;51.566;6.994;2023-04-29T05:33:09;100994.13;;;8.67;100.00
48553;BME280;34335;51.566;6.994;2023-04-29T05:35:35;100993.31;;;8.72;100.00
48553;BME280;34335;51.566;6.994;2023-04-29T05:38:01;100996.91;;;8.82;100.00
48553;BME280;34335;51.566;6.994;2023-04-29T05:40:26;100996.97;;;8.90;100.00
48553;BME280;34335;51.566;6.994;2023-04-29T05:42:52;100999.44;;;8.79;100.00
48553;BME280;34335;51.566;6.994;2023-04-29T05:45:17;101004.47;;;8.64;100.00
48553;BME280;34335;51.566;6.994;2023-04-29T05:47:42;101012.16;;;8.56;100.00
48553;BME280;34335;51.566;6.994;2023-04-29T05:50:08;101007.06;;;8.67;100.00
48553;BME280;34335;51.566;6.994;2023-04-29T05:52:33;101008.75;;;8.63;100.00
48553;BME280;34335;51.566;6.994;2023-04-29T05:54:58;101020.16;;;8.76;100.00
48553;BME280;34335;51.566;6.994;2023-04-29T05:57:24;101024.47;;;8.76;100.00
48553;BME280;34335;51.566;6.994;2023-04-29T05:59:49;101021.97;;;8.83;100.00
48553;BME280;34335;51.566;6.994;2023-04-29T06:02:14;101024.69;;;8.94;100.00
48553;BME280;34335;51.566;6.994;2023-04-29T06:04:40;101025.53;;;8.93;100.00
48553;BME280;34335;51.566;6.994;2023-04-29T06:07:05;101033.22;;;8.85;100.00
48553;BME280;34335;51.566;6.994;2023-04-29T06:09:36;101040.09;;;8.82;100.00
48553;BME280;34335;51.566;6.994;2023-04-29T06:12:01;101040.88;;;8.75;100.00
48553;BME280;34335;51.566;6.994;2023-04-29T06:14:27;101044.31;;;8.73;100.00
48553;BME280;34335;51.566;6.994;2023-04-29T06:16:52;101050.34;;;8.69;100.00
48553;BME280;34335;51.566;6.994;2023-04-29T06:19:18;101051.31;;;8.78;100.00
48553;BME280;34335;51.566;6.994;2023-04-29T06:21:43;101056.44;;;8.75;100.00
48553;BME280;34335;51.566;6.994;2023-04-29T06:24:08;101064.22;;;8.75;100.00
48553;BME280;34335;51.566;6.994;2023-04-29T06:26:34;101064.03;;;8.59;100.00
48553;BME280;34335;51.566;6.994;2023-04-29T06:28:59;101065.91;;;8.69;100.00
48553;BME280;34335;51.566;6.994;2023-04-29T06:31:24;101071.22;;;8.79;100.00
48553;BME280;34335;51.566;6.994;2023-04-29T06:33:50;101066.25;;;8.99;100.00
48553;BME280;34335;51.566;6.994;2023-04-29T06:36:15;101062.94;;;9.14;100.00
48553;BME280;34335;51.566;6.994;2023-04-29T06:38:41;101084.34;;;8.94;100.00
48553;BME280;34335;51.566;6.994;2023-04-29T06:41:06;101076.06;;;9.28;100.00
48553;BME280;34335;51.566;6.994;2023-04-29T06:43:31;101078.75;;;9.35;100.00
48553;BME280;34335;51.566;6.994;2023-04-29T06:45:57;101085.44;;;9.15;100.00
48553;BME280;34335;51.566;6.994;2023-04-29T06:48:22;101086.81;;;8.83;100.00
48553;BME280;34335;51.566;6.994;2023-04-29T06:50:52;101086.81;;;8.83;100.00
48553;BME280;34335;51.566;6.994;2023-04-29T06:53:18;101099.00;;;8.89;100.00
48553;BME280;34335;51.566;6.994;2023-04-29T06:55:44;101094.81;;;9.02;100.00
48553;BME280;34335;51.566;6.994;2023-04-29T06:58:17;101100.66;;;8.84;100.00
48553;BME280;34335;51.566;6.994;2023-04-29T07:00:44;101095.34;;;8.76;100.00
48553;BME280;34335;51.566;6.994;2023-04-29T07:03:09;101107.53;;;8.82;100.00
48553;BME280;34335;51.566;6.994;2023-04-29T07:05:35;101105.72;;;8.75;100.00
48553;BME280;34335;51.566;6.994;2023-04-29T07:08:00;101110.06;;;8.76;100.00
48553;BME280;34335;51.566;6.994;2023-04-29T07:10:26;101111.00;;;8.82;100.00
48553;BME280;34335;51.566;6.994;2023-04-29T07:12:51;101119.56;;;8.75;100.00
48553;BME280;34335;51.566;6.994;2023-04-29T07:15:17;101118.03;;;8.91;100.00
48553;BME280;34335;51.566;6.994;2023-04-29T07:17:42;101116.88;;;8.69;100.00
48553;BME280;34335;51.566;6.994;2023-04-29T07:20:08;101127.13;;;8.61;100.00
48553;BME280;34335;51.566;6.994;2023-04-29T07:22:33;101129.66;;;8.55;100.00
48553;BME280;34335;51.566;6.994;2023-04-29T07:24:58;101131.66;;;8.75;100.00
48553;BME280;34335;51.566;6.994;2023-04-29T07:27:24;101141.94;;;8.68;100.00
48553;BME280;34335;51.566;6.994;2023-04-29T07:29:49;101138.47;;;8.66;100.00
48553;BME280;34335;51.566;6.994;2023-04-29T07:32:15;101148.75;;;8.60;100.00
48553;BME280;34335;51.566;6.994;2023-04-29T07:34:41;101149.63;;;8.62;100.00
48553;BME280;34335;51.566;6.994;2023-04-29T07:37:06;101150.56;;;8.67;100.00
48553;BME280;34335;51.566;6.994;2023-04-29T07:39:31;101155.88;;;8.77;100.00
48553;BME280;34335;51.566;6.994;2023-04-29T07:41:57;101167.03;;;8.71;100.00
48553;BME280;34335;51.566;6.994;2023-04-29T07:44:24;101170.50;;;8.71;100.00
48553;BME280;34335;51.566;6.994;2023-04-29T07:46:49;101173.97;;;8.73;100.00
48553;BME280;34335;51.566;6.994;2023-04-29T07:49:14;101173.19;;;8.78;100.00
48553;BME280;34335;51.566;6.994;2023-04-29T07:51:40;101179.22;;;8.77;100.00
48553;BME280;34335;51.566;6.994;2023-04-29T07:54:06;101177.72;;;8.93;100.00
48553;BME280;34335;51.566;6.994;2023-04-29T07:56:31;101179.34;;;8.86;100.00
48553;BME280;34335;51.566;6.994;2023-04-29T07:58:58;101176.75;;;8.86;100.00
48553;BME280;34335;51.566;6.994;2023-04-29T08:01:24;101184.78;;;9.03;100.00
48553;BME280;34335;51.566;6.994;2023-04-29T08:03:49;101188.97;;;8.93;100.00
48553;BME280;34335;51.566;6.994;2023-04-29T08:06:14;101191.38;;;8.81;100.00
48553;BME280;34335;51.566;6.994;2023-04-29T08:08:39;101181.84;;;8.78;100.00
48553;BME280;34335;51.566;6.994;2023-04-29T08:11:05;101188.72;;;8.76;100.00
48553;BME280;34335;51.566;6.994;2023-04-29T08:13:30;101199.19;;;8.84;100.00
48553;BME280;34335;51.566;6.994;2023-04-29T08:15:55;101207.94;;;8.91;100.00
48553;BME280;34335;51.566;6.994;2023-04-29T08:18:21;101198.41;;;8.88;100.00
48553;BME280;34335;51.566;6.994;2023-04-29T08:20:47;101199.25;;;8.87;100.00
48553;BME280;34335;51.566;6.994;2023-04-29T08:23:13;101207.88;;;8.86;100.00
48553;BME280;34335;51.566;6.994;2023-04-29T08:25:42;101214.16;;;9.02;100.00
48553;BME280;34335;51.566;6.994;2023-04-29T08:28:08;101215.78;;;8.95;100.00
48553;BME280;34335;51.566;6.994;2023-04-29T08:30:37;101208.03;;;8.97;100.00
48553;BME280;34335;51.566;6.994;2023-04-29T08:33:02;101221.09;;;9.04;100.00
48553;BME280;34335;51.566;6.994;2023-04-29T08:35:27;101223.78;;;9.11;100.00
48553;BME280;34335;51.566;6.994;2023-04-29T08:37:53;101221.28;;;9.17;100.00
48553;BME280;34335;51.566;6.994;2023-04-29T08:40:18;101222.75;;;8.99;100.00
48553;BME280;34335;51.566;6.994;2023-04-29T08:42:44;101224.56;;;9.05;100.00
48553;BME280;34335;51.566;6.994;2023-04-29T08:45:10;101230.63;;;9.06;100.00
48553;BME280;34335;51.566;6.994;2023-04-29T08:47:37;101229.19;;;9.29;100.00
48553;BME280;34335;51.566;6.994;2023-04-29T08:50:04;101228.44;;;9.37;100.00
48553;BME280;34335;51.566;6.994;2023-04-29T08:52:30;101233.69;;;9.41;100.00
48553;BME280;34335;51.566;6.994;2023-04-29T08:54:59;101233.66;;;9.37;100.00
48553;BME280;34335;51.566;6.994;2023-04-29T08:57:27;101235.44;;;9.42;100.00
48553;BME280;34335;51.566;6.994;2023-04-29T08:59:53;101235.44;;;9.44;100.00
48553;BME280;34335;51.566;6.994;2023-04-29T09:02:19;101238.94;;;9.46;100.00
48553;BME280;34335;51.566;6.994;2023-04-29T09:04:59;101243.31;;;9.50;100.00
48553;BME280;34335;51.566;6.994;2023-04-29T09:07:27;101244.16;;;9.49;100.00
48553;BME280;34335;51.566;6.994;2023-04-29T09:09:55;101241.66;;;9.57;100.00
48553;BME280;34335;51.566;6.994;2023-04-29T09:12:21;101244.41;;;9.71;100.00
48553;BME280;34335;51.566;6.994;2023-04-29T09:14:46;101240.16;;;9.77;100.00
48553;BME280;34335;51.566;6.994;2023-04-29T09:17:12;101250.66;;;9.85;100.00
48553;BME280;34335;51.566;6.994;2023-04-29T09:19:37;101252.03;;;9.55;100.00
48553;BME280;34335;51.566;6.994;2023-04-29T09:22:04;101252.25;;;9.77;100.00
48553;BME280;34335;51.566;6.994;2023-04-29T09:24:32;101257.78;;;10.08;100.00
48553;BME280;34335;51.566;6.994;2023-04-29T09:26:58;101264.78;;;10.12;100.00
48553;BME280;34335;51.566;6.994;2023-04-29T09:29:23;101260.44;;;10.11;100.00
48553;BME280;34335;51.566;6.994;2023-04-29T09:31:49;101264.78;;;10.12;100.00
48553;BME280;34335;51.566;6.994;2023-04-29T09:34:15;101268.28;;;10.17;100.00
48553;BME280;34335;51.566;6.994;2023-04-29T09:36:49;101271.69;;;10.10;100.00
48553;BME280;34335;51.566;6.994;2023-04-29T09:39:18;101269.88;;;10.03;100.00
48553;BME280;34335;51.566;6.994;2023-04-29T09:44:20;101271.63;;;10.04;100.00
48553;BME280;34335;51.566;6.994;2023-04-29T09:49:36;101287.44;;;10.28;100.00
48553;BME280;34335;51.566;6.994;2023-04-29T09:52:04;101286.50;;;10.19;100.00
48553;BME280;34335;51.566;6.994;2023-04-29T09:54:31;101291.97;;;10.42;100.00
48553;BME280;34335;51.566;6.994;2023-04-29T09:56:58;101282.53;;;10.55;100.00
48553;BME280;34335;51.566;6.994;2023-04-29T09:59:25;101288.69;;;10.69;100.00
48553;BME280;34335;51.566;6.994;2023-04-29T10:01:55;101284.53;;;10.88;100.00
48553;BME280;34335;51.566;6.994;2023-04-29T10:04:22;101285.16;;;10.59;100.00
48553;BME280;34335;51.566;6.994;2023-04-29T10:06:50;101282.56;;;10.59;100.00
48553;BME280;34335;51.566;6.994;2023-04-29T10:09:17;101289.72;;;10.88;100.00
48553;BME280;34335;51.566;6.994;2023-04-29T10:11:44;101292.44;;;11.09;100.00
48553;BME280;34335;51.566;6.994;2023-04-29T10:14:23;101285.56;;;11.21;100.00
48553;BME280;34335;51.566;6.994;2023-04-29T10:17:02;101282.19;;;11.35;100.00
48553;BME280;34335;51.566;6.994;2023-04-29T10:19:38;101284.72;;;11.21;100.00
48553;BME280;34335;51.566;6.994;2023-04-29T10:22:08;101283.88;;;11.27;100.00
48553;BME280;34335;51.566;6.994;2023-04-29T10:24:35;101289.25;;;11.59;100.00
48553;BME280;34335;51.566;6.994;2023-04-29T10:27:01;101284.97;;;11.80;100.00
48553;BME280;34335;51.566;6.994;2023-04-29T10:29:33;101291.97;;;11.92;100.00
48553;BME280;34335;51.566;6.994;2023-04-29T10:31:59;101284.25;;;12.18;100.00
48553;BME280;34335;51.566;6.994;2023-04-29T10:34:26;101279.03;;;12.18;100.00
48553;BME280;34335;51.566;6.994;2023-04-29T10:36:52;101292.06;;;12.34;100.00
48553;BME280;34335;51.566;6.994;2023-04-29T10:39:26;101291.19;;;12.18;100.00
48553;BME280;34335;51.566;6.994;2023-04-29T10:41:56;101292.88;;;12.00;100.00
48553;BME280;34335;51.566;6.994;2023-04-29T10:44:21;101286.88;;;12.26;100.00
48553;BME280;34335;51.566;6.994;2023-04-29T10:46:48;101289.47;;;12.30;100.00
48553;BME280;34335;51.566;6.994;2023-04-29T10:49:13;101292.97;;;12.29;100.00
48553;BME280;34335;51.566;6.994;2023-04-29T10:51:40;101295.44;;;11.83;100.00
48553;BME280;34335;51.566;6.994;2023-04-29T10:56:47;101304.25;;;12.36;100.00
48553;BME280;34335;51.566;6.994;2023-04-29T10:59:15;101306.78;;;12.02;100.00
48553;BME280;34335;51.566;6.994;2023-04-29T11:01:51;101311.09;;;11.97;100.00
48553;BME280;34335;51.566;6.994;2023-04-29T11:04:18;101304.25;;;12.33;100.00
48553;BME280;34335;51.566;6.994;2023-04-29T11:06:46;101304.25;;;12.33;100.00
48553;BME280;34335;51.566;6.994;2023-04-29T11:09:49;101311.19;;;12.22;100.00
48553;BME280;34335;51.566;6.994;2023-04-29T11:12:04;101319.03;;;12.60;100.00
48553;BME280;34335;51.566;6.994;2023-04-29T11:14:33;101312.09;;;12.66;100.00
48553;BME280;34335;51.566;6.994;2023-04-29T11:17:12;101310.38;;;12.63;100.00
48553;BME280;34335;51.566;6.994;2023-04-29T11:19:42;101313.78;;;13.10;100.00
48553;BME280;34335;51.566;6.994;2023-04-29T11:22:12;101305.91;;;13.29;100.00
48553;BME280;34335;51.566;6.994;2023-04-29T11:24:56;101305.94;;;13.15;100.00
48553;BME280;34335;51.566;6.994;2023-04-29T11:27:24;101314.72;;;12.83;100.00
48553;BME280;34335;51.566;6.994;2023-04-29T11:29:53;101316.34;;;13.53;100.00
48553;BME280;34335;51.566;6.994;2023-04-29T11:32:30;101310.94;;;13.94;100.00
48553;BME280;34335;51.566;6.994;2023-04-29T11:35:13;101309.97;;;14.10;100.00
48553;BME280;34335;51.566;6.994;2023-04-29T11:37:40;101311.81;;;13.90;100.00
48553;BME280;34335;51.566;6.994;2023-04-29T11:40:06;101315.38;;;13.79;100.00
48553;BME280;34335;51.566;6.994;2023-04-29T11:42:36;101316.28;;;13.70;100.00
48553;BME280;34335;51.566;6.994;2023-04-29T11:45:05;101316.09;;;14.08;100.00
48553;BME280;34335;51.566;6.994;2023-04-29T11:47:31;101324.09;;;13.74;100.00
48553;BME280;34335;51.566;6.994;2023-04-29T11:50:04;101321.53;;;13.70;100.00
48553;BME280;34335;51.566;6.994;2023-04-29T11:52:30;101324.91;;;13.93;100.00
48553;BME280;34335;51.566;6.994;2023-04-29T11:54:57;101325.00;;;13.69;100.00
48553;BME280;34335;51.566;6.994;2023-04-29T11:57:23;101324.69;;;14.30;100.00
48553;BME280;34335;51.566;6.994;2023-04-29T11:59:48;101318.44;;;14.46;100.00
48553;BME280;34335;51.566;6.994;2023-04-29T12:02:14;101320.06;;;14.68;100.00
48553;BME280;34335;51.566;6.994;2023-04-29T12:04:45;101315.50;;;14.94;100.00
48553;BME280;34335;51.566;6.994;2023-04-29T12:07:14;101310.19;;;14.98;100.00
48553;BME280;34335;51.566;6.994;2023-04-29T12:09:43;101313.97;;;14.65;100.00
48553;BME280;34335;51.566;6.994;2023-04-29T12:12:09;101309.19;;;15.13;100.00
48553;BME280;34335;51.566;6.994;2023-04-29T12:14:35;101310.19;;;15.01;100.00
48553;BME280;34335;51.566;6.994;2023-04-29T12:17:01;101315.47;;;14.93;100.00
48553;BME280;34335;51.566;6.994;2023-04-29T12:19:27;101313.25;;;14.42;100.00
48553;BME280;34335;51.566;6.994;2023-04-29T12:21:52;101327.63;;;13.65;100.00
48553;BME280;34335;51.566;6.994;2023-04-29T12:24:19;101314.97;;;14.47;100.00
48553;BME280;34335;51.566;6.994;2023-04-29T12:26:45;101324.72;;;14.25;100.00
48553;BME280;34335;51.566;6.994;2023-04-29T12:29:12;101326.44;;;14.28;100.00
48553;BME280;34335;51.566;6.994;2023-04-29T12:31:37;101322.00;;;14.36;100.00
48553;BME280;34335;51.566;6.994;2023-04-29T12:34:03;101324.66;;;14.28;100.00
48553;BME280;34335;51.566;6.994;2023-04-29T12:36:30;101327.31;;;14.27;100.00
48553;BME280;34335;51.566;6.994;2023-04-29T12:38:55;101326.56;;;14.01;100.00
48553;BME280;34335;51.566;6.994;2023-04-29T12:41:35;101328.78;;;14.62;100.00
48553;BME280;34335;51.566;6.994;2023-04-29T12:44:01;101324.94;;;13.80;100.00
48553;BME280;34335;51.566;6.994;2023-04-29T12:46:33;101329.19;;;14.01;100.00
48553;BME280;34335;51.566;6.994;2023-04-29T12:49:01;101336.16;;;14.09;100.00
48553;BME280;34335;51.566;6.994;2023-04-29T12:51:26;101335.13;;;14.31;100.00
48553;BME280;34335;51.566;6.994;2023-04-29T12:53:52;101333.63;;;13.92;100.00
48553;BME280;34335;51.566;6.994;2023-04-29T12:56:17;101330.06;;;14.00;100.00